createdAt,value
2022-10-11T00:00:41.202Z,13.52
2022-10-11T00:03:09.539Z,13.51
2022-10-11T00:05:37.864Z,13.44
2022-10-11T00:08:06.571Z,13.46
2022-10-11T00:10:35.357Z,13.44
2022-10-11T00:13:05.216Z,13.38
2022-10-11T00:15:34.176Z,13.36
2022-10-11T00:18:05.270Z,13.36
2022-10-11T00:20:33.505Z,13.32
2022-10-11T00:23:01.406Z,13.28
2022-10-11T00:25:29.433Z,13.27
2022-10-11T00:27:57.659Z,13.28
2022-10-11T00:30:27.067Z,13.26
2022-10-11T00:32:55.038Z,13.29
2022-10-11T00:35:23.000Z,13.27
2022-10-11T00:37:50.965Z,13.28
2022-10-11T00:40:21.064Z,13.28
2022-10-11T00:42:48.982Z,13.30
2022-10-11T00:45:59.364Z,13.27
2022-10-11T00:48:37.349Z,13.26
2022-10-11T00:51:11.305Z,13.24
2022-10-11T00:53:39.434Z,13.23
2022-10-11T00:56:11.161Z,13.24
2022-10-11T00:58:39.968Z,13.24
2022-10-11T01:01:08.502Z,13.24
2022-10-11T01:03:39.807Z,13.24
2022-10-11T01:06:08.413Z,13.24
2022-10-11T01:08:37.060Z,13.22
2022-10-11T01:11:05.284Z,13.20
2022-10-11T01:13:41.656Z,13.19
2022-10-11T01:16:16.481Z,13.18
2022-10-11T01:18:55.164Z,13.15
2022-10-11T01:21:36.769Z,13.13
2022-10-11T01:24:38.938Z,13.11
2022-10-11T01:27:31.398Z,13.13
2022-10-11T01:30:15.834Z,13.10
2022-10-11T01:32:51.599Z,13.10
2022-10-11T01:35:25.414Z,13.09
2022-10-11T01:38:00.751Z,13.07
2022-10-11T01:40:34.498Z,13.10
2022-10-11T01:43:04.603Z,13.08
2022-10-11T01:48:47.177Z,13.10
2022-10-11T01:51:16.110Z,13.08
2022-10-11T01:54:05.815Z,13.07
2022-10-11T01:56:59.836Z,13.05
2022-10-11T01:59:43.925Z,13.05
2022-10-11T02:02:28.014Z,13.06
2022-10-11T02:05:04.368Z,13.02
2022-10-11T02:07:41.248Z,13.02
2022-10-11T02:10:16.872Z,13.03
2022-10-11T02:12:50.085Z,13.04
2022-10-11T02:15:20.190Z,13.01
2022-10-11T02:17:52.208Z,13.03
2022-10-11T02:20:25.909Z,13.03
2022-10-11T02:23:00.789Z,13.03
2022-10-11T02:25:33.527Z,13.02
2022-10-11T02:28:05.367Z,13.03
2022-10-11T02:30:34.237Z,13.05
2022-10-11T02:33:04.835Z,13.05
2022-10-11T02:35:40.403Z,13.06
2022-10-11T02:38:17.528Z,13.04
2022-10-11T02:40:48.711Z,13.05
2022-10-11T02:43:24.864Z,13.06
2022-10-11T02:45:57.377Z,13.05
2022-10-11T02:48:27.506Z,13.07
2022-10-11T02:50:58.280Z,13.05
2022-10-11T02:53:27.860Z,13.07
2022-10-11T02:55:56.718Z,13.07
2022-10-11T02:58:25.334Z,13.06
2022-10-11T03:00:53.365Z,13.04
2022-10-11T03:03:21.547Z,13.05
2022-10-11T03:05:49.495Z,13.04
2022-10-11T03:08:19.054Z,13.03
2022-10-11T03:10:46.933Z,13.03
2022-10-11T03:13:18.109Z,12.98
2022-10-11T03:16:01.921Z,12.90
2022-10-11T03:18:31.221Z,12.88
2022-10-11T03:20:59.074Z,12.93
2022-10-11T03:23:28.388Z,12.88
2022-10-11T03:25:56.610Z,12.87
2022-10-11T03:28:24.561Z,12.90
2022-10-11T03:30:53.431Z,12.86
2022-10-11T03:33:21.314Z,12.90
2022-10-11T03:35:50.166Z,12.84
2022-10-11T03:38:20.701Z,12.84
2022-10-11T03:40:50.567Z,12.88
2022-10-11T03:43:19.133Z,12.79
2022-10-11T03:45:47.021Z,12.82
2022-10-11T03:48:15.000Z,12.81
2022-10-11T03:50:43.202Z,12.80
2022-10-11T03:53:11.111Z,12.80
2022-10-11T03:55:40.112Z,12.81
2022-10-11T03:58:09.975Z,12.84
2022-10-11T04:00:38.753Z,12.83
2022-10-11T04:03:06.699Z,12.83
2022-10-11T04:05:34.727Z,12.79
2022-10-11T04:08:02.645Z,12.81
2022-10-11T04:10:31.070Z,12.76
2022-10-11T04:12:59.140Z,12.82
2022-10-11T04:15:28.550Z,12.80
2022-10-11T04:17:56.451Z,12.83
2022-10-11T04:20:24.461Z,12.81
2022-10-11T04:22:52.553Z,12.82
2022-10-11T04:25:20.452Z,12.79
2022-10-11T04:27:48.623Z,12.80
2022-10-11T04:30:17.408Z,12.79
2022-10-11T04:32:46.694Z,12.78
2022-10-11T04:35:14.605Z,12.78
2022-10-11T04:37:42.551Z,12.78
2022-10-11T04:40:11.875Z,12.76
2022-10-11T04:42:39.750Z,12.75
2022-10-11T04:45:09.455Z,12.73
2022-10-11T04:47:38.035Z,12.73
2022-10-11T04:50:08.220Z,12.68
2022-10-11T04:52:36.591Z,12.71
2022-10-11T04:55:05.013Z,12.67
2022-10-11T04:57:32.910Z,12.67
2022-10-11T05:00:00.795Z,12.73
2022-10-11T05:02:28.743Z,12.67
2022-10-11T05:04:56.832Z,12.69
2022-10-11T05:07:26.110Z,12.69
2022-10-11T05:09:54.597Z,12.67
2022-10-11T05:12:22.647Z,12.71
2022-10-11T05:14:50.561Z,12.69
2022-10-11T05:17:18.451Z,12.69
2022-10-11T05:19:46.407Z,12.69
2022-10-11T05:22:14.306Z,12.73
2022-10-11T05:24:43.548Z,12.63
2022-10-11T05:27:11.516Z,12.66
2022-10-11T05:29:39.419Z,12.65
2022-10-11T05:32:07.325Z,12.72
2022-10-11T05:34:35.278Z,12.66
2022-10-11T05:37:03.167Z,12.66
2022-10-11T05:39:31.222Z,12.62
2022-10-11T05:42:00.663Z,12.67
2022-10-11T05:44:28.594Z,12.67
2022-10-11T05:46:56.457Z,12.64
2022-10-11T05:49:24.389Z,12.67
2022-10-11T05:51:52.288Z,12.67
2022-10-11T05:54:20.156Z,12.68
2022-10-11T05:56:48.488Z,12.63
2022-10-11T05:59:17.743Z,12.67
2022-10-11T06:01:45.717Z,12.68
2022-10-11T06:04:14.924Z,12.67
2022-10-11T06:06:42.916Z,12.66
2022-10-11T06:09:10.875Z,12.69
2022-10-11T06:11:41.286Z,12.65
2022-10-11T06:14:09.826Z,12.64
2022-10-11T06:16:39.357Z,12.62
2022-10-11T06:19:07.888Z,12.64
2022-10-11T06:21:36.401Z,12.65
2022-10-11T06:24:04.677Z,12.66
2022-10-11T06:26:32.665Z,12.65
2022-10-11T06:29:00.620Z,12.67
2022-10-11T06:31:28.544Z,12.68
2022-10-11T06:33:59.005Z,12.65
2022-10-11T06:36:27.132Z,12.68
2022-10-11T06:38:56.160Z,12.68
2022-10-11T06:41:26.410Z,12.66
2022-10-11T06:43:54.487Z,12.63
2022-10-11T06:46:24.783Z,12.68
2022-10-11T06:48:52.698Z,12.67
2022-10-11T06:51:23.666Z,12.69
2022-10-11T06:53:52.770Z,12.65
2022-10-11T06:56:20.744Z,12.64
2022-10-11T06:58:48.817Z,12.65
2022-10-11T07:01:20.083Z,12.69
2022-10-11T07:03:49.096Z,12.67
2022-10-11T07:06:19.655Z,12.68
2022-10-11T07:08:49.660Z,12.65
2022-10-11T07:11:18.851Z,12.68
2022-10-11T07:13:50.912Z,12.67
2022-10-11T07:16:20.067Z,12.66
2022-10-11T07:18:48.044Z,12.63
2022-10-11T07:21:17.148Z,12.65
2022-10-11T07:23:45.403Z,12.67
2022-10-11T07:26:14.695Z,12.66
2022-10-11T07:28:42.926Z,12.69
2022-10-11T07:31:13.954Z,12.68
2022-10-11T07:33:41.779Z,12.66
2022-10-11T07:36:10.916Z,12.69
2022-10-11T07:38:40.233Z,12.65
2022-10-11T07:41:09.329Z,12.73
2022-10-11T07:43:39.539Z,12.79
2022-10-11T07:46:08.281Z,12.83
2022-10-11T07:48:37.573Z,12.86
2022-10-11T07:51:07.261Z,12.93
2022-10-11T07:53:39.667Z,12.96
2022-10-11T07:56:08.891Z,13.01
2022-10-11T07:58:38.529Z,13.09
2022-10-11T08:01:07.244Z,13.04
2022-10-11T08:03:35.528Z,13.11
2022-10-11T08:06:05.852Z,13.13
2022-10-11T08:08:34.040Z,13.10
2022-10-11T08:11:02.008Z,13.09
2022-10-11T08:13:30.089Z,13.13
2022-10-11T08:15:59.373Z,13.11
2022-10-11T08:18:27.448Z,13.08
2022-10-11T08:20:55.292Z,13.09
2022-10-11T08:23:23.253Z,13.18
2022-10-11T08:25:51.186Z,13.14
2022-10-11T08:28:19.156Z,13.15
2022-10-11T08:30:50.191Z,13.18
2022-10-11T08:33:20.301Z,13.15
2022-10-11T08:35:48.843Z,13.15
2022-10-11T08:38:16.852Z,13.09
2022-10-11T08:40:48.284Z,13.14
2022-10-11T08:43:27.897Z,13.16
2022-10-11T08:45:59.186Z,13.14
2022-10-11T08:48:35.275Z,13.16
2022-10-11T08:51:08.134Z,13.11
2022-10-11T08:53:45.328Z,13.19
2022-10-11T08:56:15.071Z,13.22
2022-10-11T08:58:48.428Z,13.22
2022-10-11T09:01:21.699Z,13.25
2022-10-11T09:03:52.053Z,13.25
2022-10-11T09:06:37.775Z,13.27
2022-10-11T09:09:22.383Z,13.27
2022-10-11T09:12:02.044Z,13.22
2022-10-11T09:14:52.269Z,13.23
2022-10-11T09:17:37.353Z,13.15
2022-10-11T09:20:32.907Z,13.17
2022-10-11T09:23:05.792Z,13.19
2022-10-11T09:25:36.439Z,13.18
2022-10-11T09:28:16.344Z,13.15
2022-10-11T09:30:49.569Z,13.21
2022-10-11T09:33:23.905Z,13.22
2022-10-11T09:35:53.813Z,13.23
2022-10-11T09:38:39.819Z,13.22
2022-10-11T09:41:16.245Z,13.29
2022-10-11T09:43:48.600Z,13.22
2022-10-11T09:46:23.007Z,13.22
2022-10-11T09:48:54.489Z,13.22
2022-10-11T09:51:27.013Z,13.18
2022-10-11T09:53:58.272Z,13.19
2022-10-11T09:56:28.708Z,13.18
2022-10-11T09:59:17.108Z,13.04
2022-10-11T10:01:45.509Z,13.12
2022-10-11T10:04:16.906Z,13.17
2022-10-11T10:06:46.497Z,13.18
2022-10-11T10:09:26.015Z,13.16
2022-10-11T10:11:54.479Z,13.18
2022-10-11T10:14:25.708Z,13.17
2022-10-11T10:17:06.869Z,13.20
2022-10-11T10:19:44.966Z,13.19
2022-10-11T10:22:20.207Z,13.16
2022-10-11T10:24:50.350Z,13.18
2022-10-11T10:27:22.127Z,13.20
2022-10-11T10:30:17.135Z,13.18
2022-10-11T10:32:52.227Z,13.18
2022-10-11T10:35:31.602Z,13.19
2022-10-11T10:38:09.818Z,13.25
2022-10-11T10:40:43.789Z,13.25
2022-10-11T10:43:17.401Z,13.29
2022-10-11T10:46:10.654Z,13.27
2022-10-11T10:51:44.309Z,13.46
2022-10-11T10:54:25.486Z,13.46
2022-10-11T10:56:56.445Z,13.49
2022-10-11T10:59:43.929Z,13.57
2022-10-11T11:02:39.002Z,13.60
2022-10-11T11:05:18.766Z,13.67
2022-10-11T11:07:52.711Z,13.72
2022-10-11T11:10:25.551Z,13.75
2022-10-11T11:13:07.400Z,13.76
2022-10-11T11:15:40.224Z,13.77
2022-10-11T11:18:22.593Z,13.80
2022-10-11T11:21:06.288Z,13.82
2022-10-11T11:23:41.787Z,13.84
2022-10-11T11:26:19.596Z,13.91
2022-10-11T11:28:58.972Z,13.93
2022-10-11T11:31:45.509Z,13.90
2022-10-11T11:34:21.713Z,13.90
2022-10-11T11:36:55.880Z,13.84
2022-10-11T11:39:26.975Z,13.77
2022-10-11T11:42:00.942Z,13.83
2022-10-11T11:44:32.280Z,13.84
2022-10-11T11:47:04.642Z,13.79
2022-10-11T11:49:37.034Z,13.83
2022-10-11T11:52:06.757Z,13.85
2022-10-11T11:54:45.637Z,13.86
2022-10-11T11:57:25.402Z,13.88
2022-10-11T12:00:00.477Z,13.90
2022-10-11T12:02:42.473Z,13.86
2022-10-11T12:05:12.572Z,13.84
2022-10-11T12:07:54.039Z,13.81
2022-10-11T12:10:29.068Z,13.84
2022-10-11T12:13:09.708Z,13.88
2022-10-11T12:15:38.841Z,13.85
2022-10-11T12:18:16.252Z,13.92
2022-10-11T12:20:45.364Z,13.87
2022-10-11T12:23:41.948Z,13.86
2022-10-11T12:26:39.021Z,13.81
2022-10-11T12:29:28.720Z,13.82
2022-10-11T12:32:48.063Z,13.86
2022-10-11T12:36:04.003Z,13.84
2022-10-11T12:38:37.884Z,13.78
2022-10-11T12:41:50.342Z,13.81
2022-10-11T12:44:26.302Z,13.80
2022-10-11T12:47:26.212Z,13.77
2022-10-11T12:50:08.880Z,13.75
2022-10-11T12:52:42.960Z,13.79
2022-10-11T12:55:26.587Z,13.81
2022-10-11T12:58:25.535Z,13.80
2022-10-11T13:01:18.702Z,13.79
2022-10-11T13:03:52.995Z,13.78
2022-10-11T13:06:24.906Z,13.81
2022-10-11T13:08:57.050Z,13.82
2022-10-11T13:11:30.912Z,13.88
2022-10-11T13:14:01.674Z,13.87
2022-10-11T13:16:46.623Z,13.93
2022-10-11T13:19:15.711Z,13.87
2022-10-11T13:21:44.319Z,13.90
2022-10-11T13:24:15.916Z,13.91
2022-10-11T13:26:45.477Z,13.90
2022-10-11T13:29:18.087Z,13.91
2022-10-11T13:31:49.231Z,14.01
2022-10-11T13:34:22.352Z,14.01
2022-10-11T13:36:56.516Z,13.96
2022-10-11T13:39:31.221Z,14.01
2022-10-11T13:42:00.963Z,14.02
2022-10-11T13:44:29.226Z,14.05
2022-10-11T13:46:58.759Z,14.06
2022-10-11T13:49:31.737Z,14.13
2022-10-11T13:52:00.926Z,14.13
2022-10-11T13:55:09.134Z,14.14
2022-10-11T13:57:40.308Z,14.16
2022-10-11T14:00:23.680Z,14.14
2022-10-11T14:02:58.016Z,14.10
2022-10-11T14:05:31.435Z,14.10
2022-10-11T14:08:01.901Z,14.19
2022-10-11T14:10:30.244Z,14.17
2022-10-11T14:13:23.162Z,14.14
2022-10-11T14:16:01.147Z,14.17
2022-10-11T14:18:42.358Z,14.10
2022-10-11T14:21:27.741Z,14.09
2022-10-11T14:23:57.360Z,14.08
2022-10-11T14:26:26.876Z,14.06
2022-10-11T14:28:59.005Z,14.11
2022-10-11T14:31:30.745Z,14.02
2022-10-11T14:34:00.291Z,14.04
2022-10-11T14:36:28.263Z,14.05
2022-10-11T14:38:56.356Z,14.03
2022-10-11T14:41:25.013Z,14.07
2022-10-11T14:43:56.287Z,14.01
2022-10-11T14:46:26.078Z,13.99
2022-10-11T14:48:56.314Z,14.02
2022-10-11T14:51:28.657Z,14.04
2022-10-11T14:53:56.556Z,14.03
2022-10-11T14:56:24.477Z,13.95
2022-10-11T14:58:52.427Z,14.04
2022-10-11T15:01:20.364Z,14.02
2022-10-11T15:03:48.268Z,14.03
2022-10-11T15:06:21.642Z,14.09
2022-10-11T15:08:51.513Z,14.10
2022-10-11T15:11:21.072Z,14.11
2022-10-11T15:13:49.854Z,14.05
2022-10-11T15:16:20.852Z,14.07
2022-10-11T15:18:50.926Z,14.07
2022-10-11T15:21:20.507Z,14.00
2022-10-11T15:23:51.781Z,14.03
2022-10-11T15:26:22.023Z,14.03
2022-10-11T15:28:51.113Z,14.01
2022-10-11T15:31:19.727Z,14.03
2022-10-11T15:33:48.140Z,13.97
2022-10-11T15:36:20.095Z,13.95
2022-10-11T15:38:50.436Z,14.03
2022-10-11T15:41:20.376Z,14.04
2022-10-11T15:43:50.167Z,14.03
2022-10-11T15:46:22.081Z,13.95
2022-10-11T15:48:50.687Z,13.95
2022-10-11T15:51:18.810Z,13.86
2022-10-11T15:53:46.726Z,13.85
2022-10-11T15:56:19.621Z,13.90
2022-10-11T15:58:47.543Z,13.90
2022-10-11T16:01:18.612Z,13.84
2022-10-11T16:03:48.228Z,13.68
2022-10-11T16:06:16.417Z,13.67
2022-10-11T16:08:45.023Z,13.73
2022-10-11T16:11:13.666Z,13.71
2022-10-11T16:13:42.960Z,13.71
2022-10-11T16:16:12.465Z,13.69
2022-10-11T16:18:40.488Z,13.67
2022-10-11T16:21:10.318Z,13.63
2022-10-11T16:23:38.748Z,13.60
2022-10-11T16:26:10.125Z,13.61
2022-10-11T16:28:38.662Z,13.60
2022-10-11T16:31:14.304Z,13.60
2022-10-11T16:33:46.479Z,13.53
2022-10-11T16:36:36.679Z,13.50
2022-10-11T16:39:07.904Z,13.50
2022-10-11T16:41:35.958Z,13.48
2022-10-11T16:44:04.430Z,13.44
2022-10-11T16:46:34.579Z,13.40
2022-10-11T16:49:02.593Z,13.34
2022-10-11T16:51:30.710Z,13.35
2022-10-11T16:53:58.862Z,13.34
2022-10-11T16:56:27.581Z,13.24
2022-10-11T16:58:56.080Z,13.24
2022-10-11T17:01:24.156Z,13.25
2022-10-11T17:03:53.855Z,13.23
2022-10-11T17:06:21.823Z,13.21
2022-10-11T17:08:49.966Z,13.16
2022-10-11T17:11:18.646Z,13.15
2022-10-11T17:13:46.909Z,13.09
2022-10-11T17:16:15.203Z,13.09
2022-10-11T17:18:43.283Z,13.04
2022-10-11T17:21:15.678Z,13.03
2022-10-11T17:23:43.871Z,13.03
2022-10-11T17:26:15.406Z,12.97
2022-10-11T17:28:43.535Z,13.00
2022-10-11T17:31:11.967Z,13.01
2022-10-11T17:33:40.281Z,12.97
2022-10-11T17:36:22.424Z,12.96
2022-10-11T17:38:51.880Z,12.96
2022-10-11T17:41:20.659Z,12.95
2022-10-11T17:43:48.718Z,12.95
2022-10-11T17:46:17.879Z,12.90
2022-10-11T17:48:45.946Z,12.90
2022-10-11T17:51:15.419Z,12.91
2022-10-11T17:53:45.251Z,12.85
2022-10-11T17:56:14.599Z,12.88
2022-10-11T17:58:42.938Z,12.88
2022-10-11T18:01:13.352Z,12.89
2022-10-11T18:03:41.432Z,12.86
2022-10-11T18:06:12.008Z,12.86
2022-10-11T18:08:41.711Z,12.84
2022-10-11T18:11:16.214Z,12.86
2022-10-11T18:13:46.467Z,12.87
2022-10-11T18:16:15.377Z,12.84
2022-10-11T18:18:44.185Z,12.86
2022-10-11T18:21:12.863Z,12.84
2022-10-11T18:23:41.035Z,12.84
2022-10-11T18:26:15.055Z,12.82
2022-10-11T18:28:43.510Z,12.85
2022-10-11T18:31:14.348Z,12.84
2022-10-11T18:33:45.458Z,12.83
2022-10-11T18:36:14.576Z,12.81
2022-10-11T18:38:46.379Z,12.77
2022-10-11T18:41:17.400Z,12.78
2022-10-11T18:43:50.492Z,12.80
2022-10-11T18:46:18.983Z,12.78
2022-10-11T18:48:49.080Z,12.77
2022-10-11T18:51:19.332Z,12.77
2022-10-11T18:53:48.241Z,12.76
2022-10-11T18:56:20.601Z,12.77
2022-10-11T18:58:49.933Z,12.74
2022-10-11T19:01:20.403Z,12.75
2022-10-11T19:03:52.362Z,12.71
2022-10-11T19:06:22.143Z,12.68
2022-10-11T19:08:51.338Z,12.70
2022-10-11T19:11:22.205Z,12.70
2022-10-11T19:13:56.207Z,12.66
2022-10-11T19:16:24.247Z,12.67
2022-10-11T19:18:53.033Z,12.66
2022-10-11T19:21:21.190Z,12.67
2022-10-11T19:23:50.162Z,12.66
2022-10-11T19:26:22.386Z,12.64
2022-10-11T19:28:55.991Z,12.64
2022-10-11T19:31:24.256Z,12.64
2022-10-11T19:33:52.206Z,12.59
2022-10-11T19:36:20.171Z,12.61
2022-10-11T19:38:49.666Z,12.57
2022-10-11T19:41:19.673Z,12.58
2022-10-11T19:43:49.250Z,12.59
2022-10-11T19:46:32.378Z,12.57
2022-10-11T19:49:08.725Z,12.57
2022-10-11T19:51:38.157Z,12.57
2022-10-11T19:54:08.202Z,12.54
2022-10-11T19:56:36.818Z,12.52
2022-10-11T19:59:07.375Z,12.53
2022-10-11T20:01:36.711Z,12.54
2022-10-11T20:04:07.303Z,12.55
2022-10-11T20:06:38.771Z,12.57
2022-10-11T20:11:55.196Z,12.56
2022-10-11T20:14:24.606Z,12.56
2022-10-11T20:16:52.734Z,12.59
2022-10-11T20:19:24.851Z,12.58
2022-10-11T20:21:55.676Z,12.58
2022-10-11T20:24:23.566Z,12.60
2022-10-11T20:26:51.435Z,12.59
2022-10-11T20:29:19.351Z,12.60
2022-10-11T20:31:48.590Z,12.61
2022-10-11T20:34:16.474Z,12.62
2022-10-11T20:36:48.933Z,12.62
2022-10-11T20:39:17.826Z,12.63
2022-10-11T20:41:46.206Z,12.62
2022-10-11T20:44:16.019Z,12.59
2022-10-11T20:46:43.911Z,12.63
2022-10-11T20:49:13.538Z,12.64
2022-10-11T20:51:42.741Z,12.65
2022-10-11T20:54:11.773Z,12.65
2022-10-11T20:56:39.791Z,12.64
2022-10-11T20:59:07.767Z,12.63
2022-10-11T21:01:37.728Z,12.60
2022-10-11T21:04:07.489Z,12.64
2022-10-11T21:06:36.795Z,12.67
2022-10-11T21:09:05.026Z,12.66
2022-10-11T21:11:35.056Z,12.62
2022-10-11T21:14:04.923Z,12.62
2022-10-11T21:16:33.666Z,12.63
2022-10-11T21:19:02.794Z,12.64
2022-10-11T21:21:31.679Z,12.66
2022-10-11T21:24:03.155Z,12.66
2022-10-11T21:26:31.515Z,12.66
2022-10-11T21:29:00.221Z,12.67
2022-10-11T21:31:32.941Z,12.66
2022-10-11T21:34:02.038Z,12.64
2022-10-11T21:36:29.883Z,12.63
2022-10-11T21:38:57.802Z,12.63
2022-10-11T21:41:29.119Z,12.64
2022-10-11T21:43:57.214Z,12.67
2022-10-11T21:46:47.584Z,12.64
2022-10-11T21:49:15.272Z,12.64
2022-10-11T21:51:43.237Z,12.65
2022-10-11T21:54:11.135Z,12.63
2022-10-11T21:56:40.427Z,12.65
2022-10-11T21:59:11.278Z,12.64
2022-10-11T22:01:40.929Z,12.65
2022-10-11T22:04:08.996Z,12.65
2022-10-11T22:06:37.863Z,12.67
2022-10-11T22:09:06.499Z,12.67
2022-10-11T22:11:34.422Z,12.65
2022-10-11T22:14:04.058Z,12.64
2022-10-11T22:16:33.469Z,12.65
2022-10-11T22:19:01.334Z,12.65
2022-10-11T22:21:29.251Z,12.61
2022-10-11T22:23:57.546Z,12.59
2022-10-11T22:26:29.811Z,12.59
2022-10-11T22:28:58.222Z,12.62
2022-10-11T22:31:27.830Z,12.58
2022-10-11T22:33:56.267Z,12.58
2022-10-11T22:36:25.181Z,12.58
2022-10-11T22:38:54.554Z,12.61
2022-10-11T22:41:22.469Z,12.60
2022-10-11T22:43:50.987Z,12.57
2022-10-11T22:46:19.210Z,12.58
2022-10-11T22:48:49.056Z,12.50
2022-10-11T22:51:17.034Z,12.53
2022-10-11T22:53:45.058Z,12.52
2022-10-11T22:56:12.992Z,12.50
2022-10-11T22:58:40.847Z,12.48
2022-10-11T23:01:10.102Z,12.49
2022-10-11T23:03:38.164Z,12.50
2022-10-11T23:06:07.879Z,12.47
2022-10-11T23:08:35.758Z,12.46
2022-10-11T23:11:05.006Z,12.46
2022-10-11T23:13:32.895Z,12.42
2022-10-11T23:16:00.931Z,12.44
2022-10-11T23:18:28.931Z,12.42
2022-10-11T23:21:00.350Z,12.41
2022-10-11T23:23:29.695Z,12.42
2022-10-11T23:26:05.839Z,12.42
2022-10-11T23:28:34.104Z,12.40
2022-10-11T23:31:06.500Z,12.41
2022-10-11T23:33:34.490Z,12.40
2022-10-11T23:36:02.687Z,12.40
2022-10-11T23:38:32.541Z,12.39
2022-10-11T23:41:00.501Z,12.37
2022-10-11T23:43:28.628Z,12.37
2022-10-11T23:45:57.299Z,12.34
2022-10-11T23:48:25.281Z,12.32
2022-10-11T23:50:53.188Z,12.32
2022-10-11T23:53:21.068Z,12.30
2022-10-11T23:55:50.400Z,12.29
2022-10-11T23:58:18.277Z,12.27
